Time;durP1;ratioP1;P1;durP2;ratioP2;P2;SDS_P1;SDS_P2;PMS_P1;PMS_P2;Temp;Humidity;BMP_temperature;BMP_pressure;BME280_temperature;BME280_humidity;BME280_pressure;Samples;Min_cycle;Max_cycle;Signal;HPM_P1;HPM_P2
2022/11/25 00:05:08;;;;;;;86.10;39.23;;;1.30;37.70;;;;;;10426569;28;20204;-82
2022/11/25 00:10:29;;;;;;;95.40;41.13;;;1.40;27.90;;;;;;10425585;28;20188;-81
2022/11/25 00:15:50;;;;;;;89.93;40.57;;;1.40;45.20;;;;;;10435748;28;20231;-79
2022/11/25 00:21:14;;;;;;;81.80;38.23;;;1.40;39.20;;;;;;10424340;28;20196;-87
2022/11/25 00:26:35;;;;;;;90.70;38.23;;;1.40;31.30;;;;;;10424586;28;20233;-80
2022/11/25 00:31:57;;;;;;;88.90;39.83;;;1.40;27.00;;;;;;10412213;28;20320;-78
2022/11/25 00:37:17;;;;;;;82.60;38.57;;;1.40;17.00;;;;;;10415527;28;20572;-83
2022/11/25 00:48:18;;;;;;;82.40;37.87;;;1.40;41.40;;;;;;10437714;28;20238;-82
2022/11/25 00:53:39;;;;;;;80.43;36.83;;;1.30;31.50;;;;;;10409036;28;20219;-80
2022/11/25 00:59:01;;;;;;;72.67;35.63;;;1.30;16.50;;;;;;10436838;28;20234;-79
2022/11/25 01:04:22;;;;;;;85.63;37.90;;;1.30;9.60;;;;;;10422783;28;20207;-80
2022/11/25 01:09:47;;;;;;;86.40;37.87;;;1.30;24.30;;;;;;10423043;28;20218;-86
2022/11/25 01:15:09;;;;;;;83.03;35.97;;;1.30;42.50;;;;;;10423903;28;20259;-78
2022/11/25 01:20:30;;;;;;;87.43;37.90;;;1.30;34.50;;;;;;10435703;28;20194;-78
2022/11/25 01:25:52;;;;;;;85.83;37.27;;;1.40;51.90;;;;;;10436240;28;20237;-79
2022/11/25 01:31:13;;;;;;;80.70;35.80;;;1.50;30.30;;;;;;10415928;28;20199;-86
2022/11/25 01:36:34;;;;;;;74.90;34.93;;;1.50;17.80;;;;;;10421159;28;20240;-80
2022/11/25 01:41:55;;;;;;;76.70;33.73;;;1.40;12.40;;;;;;10410823;28;20259;-78
2022/11/25 01:47:23;;;;;;;65.23;30.30;;;1.40;13.80;;;;;;10422893;28;20278;-82
2022/11/25 01:52:47;;;;;;;62.93;30.90;;;1.40;25.90;;;;;;10387407;28;20273;-81
2022/11/25 01:58:32;;;;;;;68.90;29.47;;;1.40;35.00;;;;;;10434921;28;20192;-79
2022/11/25 02:03:56;;;;;;;65.07;28.40;;;1.30;28.00;;;;;;10435939;28;20194;-80
2022/11/25 02:09:20;;;;;;;65.90;28.73;;;1.40;47.40;;;;;;10437400;28;20189;-79
2022/11/25 02:14:42;;;;;;;72.23;31.67;;;1.30;35.90;;;;;;10409220;28;20246;-80
2022/11/25 02:20:13;;;;;;;73.73;32.00;;;1.40;73.40;;;;;;10442104;28;20203;-79
2022/11/25 02:25:39;;;;;;;61.30;29.03;;;1.40;33.00;;;;;;10434050;28;20206;-80
2022/11/25 02:31:07;;;;;;;56.87;27.27;;;1.40;20.20;;;;;;10420317;28;20204;-77
2022/11/25 02:36:29;;;;;;;68.00;28.73;;;1.40;16.90;;;;;;10408686;28;20573;-79
2022/11/25 02:41:57;;;;;;;59.10;28.00;;;1.30;30.00;;;;;;10389959;28;20214;-79
2022/11/25 02:47:18;;;;;;;68.40;29.97;;;1.30;30.80;;;;;;10401262;28;20359;-88
2022/11/25 02:52:40;;;;;;;59.37;28.47;;;1.30;31.20;;;;;;10389997;28;20243;-81
2022/11/25 02:58:02;;;;;;;60.83;29.40;;;1.30;37.60;;;;;;10402740;28;20202;-83
2022/11/25 03:03:24;;;;;;;62.20;27.77;;;1.30;28.00;;;;;;10400354;28;20267;-80
2022/11/25 03:08:45;;;;;;;63.00;27.87;;;1.30;29.90;;;;;;10386992;28;20268;-81
2022/11/25 03:14:06;;;;;;;68.87;29.50;;;1.30;32.00;;;;;;10399193;28;20259;-82
2022/11/25 03:19:27;;;;;;;50.90;25.40;;;1.30;27.90;;;;;;10399713;28;20515;-79
2022/11/25 03:24:48;;;;;;;62.60;27.20;;;1.30;33.80;;;;;;10401665;28;20207;-82
2022/11/25 03:30:21;;;;;;;62.47;30.23;;;1.30;23.00;;;;;;10402134;28;20192;-79
2022/11/25 03:35:47;;;;;;;55.43;27.03;;;1.30;11.80;;;;;;10409412;28;20221;-80
2022/11/25 03:41:10;;;;;;;56.93;27.30;;;1.40;7.30;;;;;;10384480;28;20193;-79
2022/11/25 03:46:32;;;;;;;57.83;27.00;;;1.40;1.00;;;;;;10398673;28;20204;-83
2022/11/25 03:51:56;;;;;;;48.43;24.73;;;1.40;1.00;;;;;;10371800;28;20526;-79
2022/11/25 03:57:18;;;;;;;61.53;29.70;;;1.50;7.80;;;;;;10386876;28;20203;-83
2022/11/25 04:02:40;;;;;;;53.83;27.63;;;1.50;1.00;;;;;;10398379;28;20189;-80
2022/11/25 04:08:02;;;;;;;59.53;27.43;;;1.40;1.00;;;;;;10384372;28;20231;-79
2022/11/25 04:13:24;;;;;;;56.37;28.20;;;1.40;12.30;;;;;;10382803;28;20450;-83
2022/11/25 04:18:46;;;;;;;64.80;29.07;;;1.50;19.00;;;;;;10400172;28;20225;-88
2022/11/25 04:24:07;;;;;;;63.93;30.17;;;1.50;1.00;;;;;;10397055;28;20205;-81
2022/11/25 04:29:29;;;;;;;68.07;31.23;;;1.50;1.00;;;;;;10383955;28;20197;-79
2022/11/25 04:34:53;;;;;;;69.67;33.33;;;1.50;1.00;;;;;;10392908;28;20238;-80
2022/11/25 04:40:15;;;;;;;69.13;35.13;;;1.50;7.50;;;;;;10396185;28;20247;-79
2022/11/25 04:45:43;;;;;;;69.00;35.03;;;1.60;1.00;;;;;;10412080;28;20276;-80
2022/11/25 04:51:21;;;;;;;74.77;35.83;;;1.50;1.00;;;;;;10401374;28;20192;-79
2022/11/25 04:56:48;;;;;;;79.67;36.47;;;1.50;1.00;;;;;;10381134;28;20204;-81
2022/11/25 05:02:26;;;;;;;80.73;37.17;;;1.50;1.00;;;;;;10381880;28;20279;-78
2022/11/25 05:08:00;;;;;;;69.93;36.30;;;1.50;1.00;;;;;;10382097;28;20402;-82
2022/11/25 05:13:21;;;;;;;74.20;39.00;;;1.50;1.00;;;;;;10368228;28;20263;-78
2022/11/25 05:18:42;;;;;;;72.93;36.77;;;1.50;1.00;;;;;;10354454;28;20277;-81
2022/11/25 05:24:04;;;;;;;64.63;34.90;;;1.40;10.70;;;;;;10343188;28;20400;-79
2022/11/25 05:29:26;;;;;;;70.77;33.07;;;1.40;15.90;;;;;;10372953;28;20200;-79
2022/11/25 05:34:48;;;;;;;67.67;32.73;;;1.50;16.70;;;;;;10412655;28;20221;-81
2022/11/25 05:40:10;;;;;;;65.17;33.13;;;1.50;15.70;;;;;;10394713;28;20235;-79
2022/11/25 05:45:31;;;;;;;72.80;33.30;;;1.50;1.00;;;;;;10380484;28;20247;-79
2022/11/25 05:50:52;;;;;;;62.10;30.00;;;1.50;1.00;;;;;;10408609;28;20261;-78
2022/11/25 05:56:16;;;;;;;82.77;34.73;;;1.50;1.00;;;;;;10405858;28;20244;-79
2022/11/25 06:01:43;;;;;;;96.53;37.50;;;1.50;7.90;;;;;;10394104;28;20200;-79
2022/11/25 06:07:06;;;;;;;93.73;37.67;;;1.50;26.70;;;;;;10393998;28;20276;-79
2022/11/25 06:12:27;;;;;;;96.63;38.50;;;1.40;68.30;;;;;;10375833;28;20242;-78
2022/11/25 06:17:49;;;;;;;102.27;42.33;;;1.50;92.00;;;;;;10355340;28;20216;-79
2022/11/25 06:23:15;;;;;;;95.57;39.33;;;1.40;99.90;;;;;;10355157;28;20399;-82
2022/11/25 06:28:38;;;;;;;86.20;37.47;;;1.40;99.90;;;;;;10351464;28;20201;-79
2022/11/25 06:33:59;;;;;;;87.07;32.17;;;1.40;99.90;;;;;;10389469;28;20228;-84
2022/11/25 06:39:20;;;;;;;82.37;32.67;;;1.40;99.90;;;;;;10365991;28;20395;-79
2022/11/25 06:44:41;;;;;;;79.13;32.10;;;1.30;99.90;;;;;;10392792;28;20490;-80
2022/11/25 06:50:03;;;;;;;81.27;33.60;;;1.30;99.90;;;;;;10367011;28;20204;-87
2022/11/25 06:55:25;;;;;;;76.37;32.23;;;1.30;99.90;;;;;;10358903;28;20217;-79
2022/11/25 07:00:46;;;;;;;85.10;35.43;;;1.40;97.40;;;;;;10372782;28;20212;-80
2022/11/25 07:06:07;;;;;;;104.23;42.93;;;1.30;74.70;;;;;;10353757;28;20208;-79
2022/11/25 07:11:34;;;;;;;117.87;52.87;;;1.30;54.10;;;;;;10376700;28;20233;-81
2022/11/25 07:16:55;;;;;;;144.13;65.87;;;1.40;26.80;;;;;;10392838;28;20257;-81
2022/11/25 07:22:16;;;;;;;130.63;58.43;;;1.50;1.00;;;;;;10398167;28;20516;-80
2022/11/25 07:27:38;;;;;;;78.43;36.10;;;1.50;1.00;;;;;;10400166;28;20207;-79
2022/11/25 07:32:58;;;;;;;49.87;24.00;;;1.40;1.00;;;;;;10408125;28;20528;-79
2022/11/25 07:38:20;;;;;;;39.43;21.07;;;1.50;1.00;;;;;;10373575;28;20271;-80
2022/11/25 07:43:44;;;;;;;40.17;19.73;;;1.50;1.00;;;;;;10360195;28;20196;-78
2022/11/25 07:49:14;;;;;;;36.37;18.77;;;1.50;1.00;;;;;;10385751;28;20199;-82
2022/11/25 07:54:35;;;;;;;35.47;17.50;;;1.50;1.00;;;;;;10415537;28;20244;-78
2022/11/25 07:59:56;;;;;;;44.03;23.57;;;1.50;1.00;;;;;;10397991;28;20268;-80
2022/11/25 08:05:17;;;;;;;38.60;20.73;;;1.70;1.00;;;;;;10371531;28;20314;-82
2022/11/25 08:10:39;;;;;;;35.67;18.67;;;1.80;1.00;;;;;;10445285;28;20216;-80
2022/11/25 08:16:01;;;;;;;34.43;18.63;;;1.80;1.00;;;;;;10406915;28;20303;-82
2022/11/25 08:21:23;;;;;;;37.33;20.00;;;1.80;1.00;;;;;;10420728;28;20204;-81
2022/11/25 08:26:44;;;;;;;51.90;25.57;;;1.80;1.00;;;;;;10421946;28;20197;-80
2022/11/25 08:32:07;;;;;;;92.77;40.80;;;1.90;1.00;;;;;;10405303;28;20283;-80
2022/11/25 08:37:31;;;;;;;92.67;40.83;;;1.90;1.00;;;;;;10397836;28;20236;-79
2022/11/25 08:42:52;;;;;;;80.97;36.30;;;2.00;1.00;;;;;;10436390;28;20392;-83
2022/11/25 08:48:15;;;;;;;85.07;42.47;;;2.10;1.00;;;;;;10422628;28;20200;-85
2022/11/25 08:53:37;;;;;;;71.47;38.60;;;2.20;1.00;;;;;;10419427;28;20239;-80
2022/11/25 08:58:59;;;;;;;80.17;37.53;;;2.30;1.00;;;;;;10435598;28;20239;-81
2022/11/25 09:04:20;;;;;;;61.90;30.80;;;2.30;1.00;;;;;;10406337;28;20247;-81
2022/11/25 09:09:43;;;;;;;66.43;32.47;;;2.40;1.00;;;;;;10434246;28;20212;-80
2022/11/25 09:15:05;;;;;;;56.23;28.17;;;2.50;1.00;;;;;;10432239;28;20274;-80
2022/11/25 09:20:26;;;;;;;45.27;22.40;;;2.50;1.00;;;;;;10435504;28;20381;-81
2022/11/25 09:25:55;;;;;;;53.00;26.63;;;2.50;1.00;;;;;;10433085;28;20227;-86
2022/11/25 09:31:17;;;;;;;54.40;27.40;;;2.60;1.00;;;;;;10420397;28;20207;-81
2022/11/25 09:36:38;;;;;;;57.97;28.87;;;2.60;1.00;;;;;;10433703;28;20250;-84
2022/11/25 09:48:05;;;;;;;39.60;21.33;;;2.70;1.00;;;;;;10432391;28;20205;-82
2022/11/25 09:53:44;;;;;;;43.17;24.23;;;2.70;1.00;;;;;;10419778;28;20544;-82
2022/11/25 09:59:09;;;;;;;42.03;24.53;;;2.80;1.00;;;;;;10417314;28;20251;-81
2022/11/25 10:04:49;;;;;;;40.93;23.03;;;2.70;1.00;;;;;;10419373;28;20219;-80
2022/11/25 10:10:25;;;;;;;42.03;23.60;;;2.70;1.00;;;;;;10417014;28;20440;-80
2022/11/25 10:16:05;;;;;;;38.10;21.10;;;2.80;1.00;;;;;;10420121;28;20220;-83
2022/11/25 10:21:27;;;;;;;40.77;22.03;;;2.90;1.00;;;;;;10419286;28;20276;-82
2022/11/25 10:26:53;;;;;;;32.33;19.20;;;2.90;1.00;;;;;;10420861;28;20193;-90
2022/11/25 10:32:23;;;;;;;33.00;18.37;;;3.00;1.00;;;;;;10404851;28;20212;-89
2022/11/25 10:37:46;;;;;;;44.37;20.30;;;3.10;1.00;;;;;;10423264;28;20263;-90
2022/11/25 10:43:13;;;;;;;37.53;19.17;;;3.10;1.00;;;;;;10433924;28;20217;-81
2022/11/25 10:49:00;;;;;;;31.83;18.23;;;3.20;99.90;;;;;;10440001;28;20279;-82
2022/11/25 10:54:27;;;;;;;32.23;18.67;;;3.20;1.00;;;;;;10416016;28;20241;-82
2022/11/25 10:59:57;;;;;;;33.00;18.13;;;3.20;1.00;;;;;;10413449;28;20281;-90
2022/11/25 11:05:24;;;;;;;36.53;19.13;;;3.20;1.00;;;;;;10408688;28;20216;-85
2022/11/25 11:10:46;;;;;;;38.93;20.53;;;3.10;1.00;;;;;;10412387;28;20209;-79
2022/11/25 11:16:34;;;;;;;43.83;22.00;;;3.00;99.90;;;;;;10436303;28;20236;-81
2022/11/25 11:21:57;;;;;;;51.00;25.87;;;3.00;1.00;;;;;;10421789;28;20216;-80
2022/11/25 11:27:25;;;;;;;34.90;18.80;;;3.10;1.00;;;;;;10427857;28;20215;-81
2022/11/25 11:33:01;;;;;;;33.70;16.93;;;3.20;1.00;;;;;;10429243;28;20232;-81
2022/11/25 11:38:36;;;;;;;35.13;17.03;;;3.30;1.00;;;;;;10378149;28;20257;-84
2022/11/25 11:44:13;;;;;;;34.83;18.20;;;3.40;99.90;;;;;;10373283;28;20270;-80
2022/11/25 11:49:51;;;;;;;42.20;23.20;;;3.40;99.90;;;;;;10411695;28;20248;-81
2022/11/25 11:55:42;;;;;;;35.60;17.37;;;3.30;1.00;;;;;;10387892;28;20411;-80
2022/11/25 12:01:22;;;;;;;31.10;16.67;;;3.30;99.90;;;;;;10374106;28;20201;-80
2022/11/25 12:06:52;;;;;;;28.03;15.63;;;3.20;1.00;;;;;;10396062;28;20560;-91
2022/11/25 12:12:20;;;;;;;31.27;16.00;;;3.00;1.00;;;;;;10399649;28;20258;-88
2022/11/25 12:17:49;;;;;;;32.27;17.60;;;3.00;1.00;;;;;;10379363;28;20236;-80
2022/11/25 12:23:41;;;;;;;34.17;18.27;;;3.00;1.00;;;;;;10394636;28;20201;-79
2022/11/25 12:29:12;;;;;;;32.57;16.30;;;3.00;1.00;;;;;;10396397;28;20205;-80
2022/11/25 12:34:39;;;;;;;32.27;16.00;;;3.00;1.00;;;;;;10378232;28;20225;-84
2022/11/25 12:40:11;;;;;;;35.00;17.40;;;2.90;1.00;;;;;;10395860;28;20241;-81
2022/11/25 12:45:32;;;;;;;41.20;19.87;;;2.90;1.00;;;;;;10379951;28;20209;-82
2022/11/25 12:50:56;;;;;;;50.10;22.17;;;2.90;1.00;;;;;;10365211;28;20258;-83
2022/11/25 12:56:26;;;;;;;50.43;22.23;;;2.80;1.00;;;;;;10408284;28;20226;-91
2022/11/25 13:01:52;;;;;;;39.80;18.57;;;2.80;1.00;;;;;;10393832;28;20212;-79
2022/11/25 13:07:22;;;;;;;34.20;16.90;;;2.80;1.00;;;;;;10393817;28;20192;-86
2022/11/25 13:13:25;;;;;;;40.60;21.83;;;2.80;1.00;;;;;;10379355;28;20234;-81
2022/11/25 13:18:47;;;;;;;42.07;24.00;;;2.80;1.00;;;;;;10363899;28;20197;-79
2022/11/25 13:24:30;;;;;;;43.07;24.37;;;2.80;1.00;;;;;;10391988;28;20208;-79
2022/11/25 13:29:53;;;;;;;55.73;28.90;;;2.80;1.00;;;;;;10407908;28;20180;-80
2022/11/25 13:35:21;;;;;;;65.80;34.77;;;2.70;1.00;;;;;;10402871;28;20233;-81
2022/11/25 13:40:59;;;;;;;58.53;30.80;;;2.80;1.00;;;;;;10354971;28;20229;-80
2022/11/25 13:46:43;;;;;;;45.70;24.93;;;2.70;1.00;;;;;;10377594;28;20369;-79
2022/11/25 13:52:11;;;;;;;38.37;22.77;;;2.60;1.00;;;;;;10365408;28;20209;-83
2022/11/25 13:57:34;;;;;;;42.17;21.67;;;2.50;1.00;;;;;;10344393;28;20228;-82
2022/11/25 14:03:35;;;;;;;45.37;23.17;;;2.50;1.00;;;;;;10340652;28;20202;-79
2022/11/25 14:09:02;;;;;;;43.83;22.17;;;2.40;1.00;;;;;;10368086;28;20236;-84
2022/11/25 14:14:51;;;;;;;53.60;28.23;;;2.40;1.00;;;;;;10391173;28;20304;-86
2022/11/25 14:20:32;;;;;;;47.50;26.87;;;2.50;1.00;;;;;;10377811;28;20216;-83
2022/11/25 14:25:56;;;;;;;51.20;27.40;;;2.50;1.00;;;;;;10368679;28;20253;-82
2022/11/25 14:31:23;;;;;;;59.70;32.50;;;2.40;1.00;;;;;;10356583;28;20260;-83
2022/11/25 14:36:56;;;;;;;53.10;28.07;;;2.50;1.00;;;;;;10370655;28;20288;-80
2022/11/25 14:42:22;;;;;;;56.67;28.17;;;2.60;1.00;;;;;;10383033;28;20203;-87
2022/11/25 14:47:43;;;;;;;79.33;36.70;;;2.70;1.00;;;;;;10398100;28;20265;-80
2022/11/25 14:53:06;;;;;;;92.23;45.87;;;2.60;1.00;;;;;;10401942;28;20301;-82
2022/11/25 14:58:28;;;;;;;92.97;46.47;;;2.60;1.00;;;;;;10387330;28;20499;-82
2022/11/25 15:03:51;;;;;;;85.97;43.07;;;2.60;1.00;;;;;;10384105;28;20230;-81
2022/11/25 15:09:23;;;;;;;66.57;36.63;;;2.60;1.00;;;;;;10386785;28;20272;-86
2022/11/25 15:14:51;;;;;;;59.00;34.97;;;2.60;1.00;;;;;;10357791;28;20246;-88
2022/11/25 15:20:18;;;;;;;81.90;39.93;;;2.70;1.00;;;;;;10371763;28;20197;-79
2022/11/25 15:25:49;;;;;;;61.83;34.77;;;2.70;1.00;;;;;;10345450;28;20220;-83
2022/11/25 15:31:16;;;;;;;65.90;33.97;;;2.70;1.00;;;;;;10400042;28;20188;-79
2022/11/25 15:36:38;;;;;;;60.47;33.87;;;2.60;1.00;;;;;;10410665;28;20216;-79
2022/11/25 15:42:06;;;;;;;57.37;32.43;;;2.70;1.00;;;;;;10389779;28;20200;-80
2022/11/25 15:47:30;;;;;;;56.13;29.93;;;2.70;1.00;;;;;;10382136;28;20651;-80
2022/11/25 15:52:57;;;;;;;60.93;32.93;;;2.60;1.00;;;;;;10395853;28;20223;-79
2022/11/25 15:58:23;;;;;;;77.67;40.23;;;2.60;1.00;;;;;;10402606;28;20209;-78
2022/11/25 16:03:46;;;;;;;65.23;33.90;;;2.60;1.00;;;;;;10389670;28;20193;-80
2022/11/25 16:09:19;;;;;;;53.38;30.20;;;2.60;1.00;;;;;;10421035;28;20435;-79
2022/11/25 16:14:41;;;;;;;51.87;26.37;;;2.60;1.00;;;;;;10400700;28;20478;-79
2022/11/25 16:20:02;;;;;;;49.77;26.40;;;2.60;1.00;;;;;;10401574;28;20196;-84
2022/11/25 16:25:23;;;;;;;62.67;27.30;;;2.50;1.00;;;;;;10399703;28;20281;-79
2022/11/25 16:30:44;;;;;;;56.00;28.10;;;2.50;1.00;;;;;;10385094;28;20365;-78
2022/11/25 16:36:06;;;;;;;61.23;32.40;;;2.50;1.00;;;;;;10399908;28;20216;-78
2022/11/25 16:41:28;;;;;;;69.23;35.60;;;2.50;1.00;;;;;;10376590;28;20198;-82
2022/11/25 16:46:50;;;;;;;68.77;35.43;;;2.50;1.00;;;;;;10385431;28;20511;-86
2022/11/25 16:52:12;;;;;;;75.00;36.73;;;2.50;1.00;;;;;;10397012;28;20200;-78
2022/11/25 16:57:33;;;;;;;82.40;43.27;;;2.50;1.00;;;;;;10397710;28;20221;-93
2022/11/25 17:02:54;;;;;;;82.10;39.50;;;2.50;1.00;;;;;;10398200;28;20209;-84
2022/11/25 17:08:16;;;;;;;63.17;34.00;;;2.40;1.00;;;;;;10384522;28;20221;-80
2022/11/25 17:13:41;;;;;;;57.00;30.90;;;2.40;1.00;;;;;;10397407;28;20228;-84
2022/11/25 17:19:02;;;;;;;59.47;31.83;;;2.40;1.00;;;;;;10384000;28;20272;-94
2022/11/25 17:24:24;;;;;;;59.40;29.20;;;2.40;1.00;;;;;;10398634;28;20199;-78
2022/11/25 17:29:47;;;;;;;46.40;25.87;;;2.40;1.00;;;;;;10398375;28;20201;-79
2022/11/25 17:35:18;;;;;;;58.93;29.90;;;2.40;1.00;;;;;;10397931;28;20227;-79
2022/11/25 17:40:42;;;;;;;69.90;36.43;;;2.40;1.00;;;;;;10352752;28;20229;-78
2022/11/25 17:46:02;;;;;;;111.67;56.03;;;2.40;1.00;;;;;;10381562;28;20395;-84
2022/11/25 17:51:24;;;;;;;112.03;52.73;;;2.40;1.00;;;;;;10382754;28;20197;-87
2022/11/25 17:56:45;;;;;;;62.83;34.23;;;2.40;1.00;;;;;;10397869;28;20221;-88
2022/11/25 18:02:19;;;;;;;47.53;24.33;;;2.50;1.00;;;;;;10396741;28;20190;-78
2022/11/25 18:07:42;;;;;;;39.33;21.30;;;2.50;1.00;;;;;;10395847;28;20415;-78
2022/11/25 18:13:04;;;;;;;40.87;23.00;;;2.50;1.00;;;;;;10395806;28;20292;-93
2022/11/25 18:18:26;;;;;;;50.30;29.03;;;2.50;1.00;;;;;;10395761;28;20263;-86
2022/11/25 18:23:48;;;;;;;72.43;37.37;;;2.50;1.00;;;;;;10396249;28;20272;-79
2022/11/25 18:29:24;;;;;;;114.43;66.20;;;2.50;1.00;;;;;;10381779;28;20373;-85
2022/11/25 18:34:45;;;;;;;88.30;52.53;;;2.40;1.00;;;;;;10381231;28;20229;-79
2022/11/25 18:40:07;;;;;;;72.60;42.40;;;2.30;1.00;;;;;;10368395;28;20273;-88
2022/11/25 18:45:35;;;;;;;77.13;42.33;;;2.40;1.00;;;;;;10389618;28;20256;-80
2022/11/25 18:50:56;;;;;;;81.10;42.80;;;2.40;1.00;;;;;;10381381;28;20429;-80
2022/11/25 18:56:17;;;;;;;77.10;43.07;;;2.40;1.00;;;;;;10394602;28;20267;-78
2022/11/25 19:01:38;;;;;;;72.23;39.07;;;2.40;1.00;;;;;;10381265;28;20204;-79
2022/11/25 19:07:01;;;;;;;64.20;32.80;;;2.40;1.00;;;;;;10396065;28;20480;-88
2022/11/25 19:12:23;;;;;;;58.00;31.17;;;2.30;1.00;;;;;;10394744;28;20256;-91
2022/11/25 19:17:47;;;;;;;68.30;33.47;;;2.30;1.00;;;;;;10400397;28;20229;-93
2022/11/25 19:23:27;;;;;;;59.17;29.70;;;2.40;1.00;;;;;;10402309;28;20247;-78
2022/11/25 19:28:53;;;;;;;51.30;27.13;;;2.40;1.00;;;;;;10402268;28;20223;-93
2022/11/25 19:34:39;;;;;;;75.47;35.87;;;2.40;1.00;;;;;;10402803;28;20216;-85
2022/11/25 19:40:01;;;;;;;146.70;67.93;;;2.40;1.00;;;;;;10377386;28;20211;-86
2022/11/25 19:45:23;;;;;;;145.97;69.53;;;2.40;1.00;;;;;;10394969;28;20282;-88
2022/11/25 19:50:47;;;;;;;116.73;60.23;;;2.40;1.00;;;;;;10400833;28;20193;-81
2022/11/25 19:56:14;;;;;;;113.87;57.13;;;2.40;1.00;;;;;;10401530;28;20244;-82
2022/11/25 20:01:41;;;;;;;113.70;55.20;;;2.40;1.00;;;;;;10401184;28;20201;-81
2022/11/25 20:07:03;;;;;;;114.67;52.80;;;2.40;1.00;;;;;;10401042;28;20204;-83
2022/11/25 20:12:27;;;;;;;114.33;51.00;;;2.30;1.00;;;;;;10405733;28;20229;-78
2022/11/25 20:17:54;;;;;;;108.30;47.40;;;2.30;1.00;;;;;;10418156;28;20201;-83
2022/11/25 20:23:36;;;;;;;94.23;44.73;;;2.20;1.00;;;;;;10404535;28;20196;-85
2022/11/25 20:29:09;;;;;;;77.57;41.07;;;2.20;1.00;;;;;;10399705;28;20212;-92
2022/11/25 20:34:32;;;;;;;70.67;36.03;;;2.30;1.00;;;;;;10399011;28;20232;-84
2022/11/25 20:39:59;;;;;;;73.00;36.17;;;2.20;1.00;;;;;;10376266;28;20281;-87
2022/11/25 20:45:22;;;;;;;63.00;33.03;;;2.20;1.00;;;;;;10364909;28;20204;-86
2022/11/25 20:50:43;;;;;;;81.07;35.30;;;2.20;1.00;;;;;;10384348;28;20208;-80
2022/11/25 20:56:05;;;;;;;71.53;36.30;;;2.20;1.00;;;;;;10398496;28;20228;-81
2022/11/25 21:01:26;;;;;;;99.20;46.07;;;2.20;1.00;;;;;;10393084;28;20197;-81
2022/11/25 21:06:47;;;;;;;85.50;40.00;;;2.20;10.70;;;;;;10389521;28;20217;-90
2022/11/25 21:12:13;;;;;;;64.43;34.10;;;2.20;12.70;;;;;;10383208;28;20237;-80
2022/11/25 21:17:38;;;;;;;61.97;32.20;;;2.20;1.00;;;;;;10384432;28;20252;-83
2022/11/25 21:23:04;;;;;;;68.20;35.17;;;2.20;1.00;;;;;;10385428;28;20185;-78
2022/11/25 21:28:26;;;;;;;111.47;60.00;;;2.20;5.90;;;;;;10398797;28;20271;-79
2022/11/25 21:33:48;;;;;;;76.60;40.83;;;2.20;1.00;;;;;;10400311;28;20463;-82
2022/11/25 21:39:31;;;;;;;59.43;32.57;;;2.20;1.00;;;;;;10394371;28;20212;-78
2022/11/25 21:44:53;;;;;;;72.67;38.70;;;2.20;7.00;;;;;;10390233;28;20199;-79
2022/11/25 21:50:16;;;;;;;99.77;48.53;;;2.10;1.00;;;;;;10400170;28;20197;-83
2022/11/25 21:55:37;;;;;;;114.37;58.00;;;2.10;1.00;;;;;;10398639;28;20444;-84
2022/11/25 22:01:00;;;;;;;135.27;64.23;;;2.20;6.30;;;;;;10399230;28;20223;-92
2022/11/25 22:06:29;;;;;;;128.47;60.73;;;2.20;7.10;;;;;;10397985;28;20186;-82
2022/11/25 22:11:51;;;;;;;137.73;62.97;;;2.10;6.10;;;;;;10381306;28;20244;-79
2022/11/25 22:17:16;;;;;;;115.20;63.20;;;2.10;16.70;;;;;;10395167;28;20407;-83
2022/11/25 22:22:38;;;;;;;105.60;51.23;;;2.20;19.70;;;;;;10381371;28;20201;-81
2022/11/25 22:27:59;;;;;;;90.80;45.53;;;2.30;15.40;;;;;;10381981;28;20242;-81
2022/11/25 22:33:31;;;;;;;100.03;46.83;;;2.30;1.00;;;;;;10395977;28;20193;-84
2022/11/25 22:38:52;;;;;;;94.27;44.20;;;2.30;1.00;;;;;;10365064;28;20540;-78
2022/11/25 22:44:25;;;;;;;84.33;40.57;;;2.30;1.00;;;;;;10381956;28;20196;-79
2022/11/25 22:49:48;;;;;;;88.97;41.80;;;2.20;1.00;;;;;;10402893;28;20196;-79
2022/11/25 22:55:22;;;;;;;89.77;41.57;;;2.20;1.00;;;;;;10404299;28;20324;-88
2022/11/25 23:00:45;;;;;;;75.47;37.27;;;2.20;1.00;;;;;;10402385;28;20193;-81
2022/11/25 23:06:10;;;;;;;82.43;40.20;;;2.30;1.00;;;;;;10388782;28;20211;-86
2022/11/25 23:11:32;;;;;;;72.03;33.33;;;2.30;1.00;;;;;;10388105;28;20240;-81
2022/11/25 23:16:55;;;;;;;59.03;30.10;;;2.30;1.00;;;;;;10403354;28;20268;-81
2022/11/25 23:22:17;;;;;;;48.83;26.20;;;2.30;4.60;;;;;;10388536;28;20264;-78
2022/11/25 23:27:39;;;;;;;47.20;23.93;;;2.40;1.00;;;;;;10401778;28;20276;-79
2022/11/25 23:33:03;;;;;;;46.13;23.47;;;2.30;1.00;;;;;;10401202;28;20193;-80
2022/11/25 23:38:26;;;;;;;43.10;24.07;;;2.40;1.00;;;;;;10401600;28;20236;-88
2022/11/25 23:43:48;;;;;;;47.53;24.57;;;2.40;1.00;;;;;;10400514;28;20201;-79
2022/11/25 23:49:27;;;;;;;44.20;24.97;;;2.40;1.00;;;;;;10402064;28;20391;-79
2022/11/25 23:54:50;;;;;;;42.47;24.23;;;2.40;1.00;;;;;;10401496;28;20517;-84
